sensor_id;sensor_type;location;lat;lon;timestamp;temperature;humidity
69322;DHT22;56468;51.974;4.612;2023-02-12T13:11:31;18.80;50.00
69322;DHT22;56468;51.974;4.612;2023-02-12T13:17:04;17.00;50.80
69322;DHT22;56468;51.974;4.612;2023-02-12T13:20:44;16.20;51.60
69322;DHT22;56468;51.974;4.612;2023-02-12T13:55:12;15.20;51.90
69322;DHT22;56468;51.974;4.612;2023-02-12T13:57:38;14.80;52.30
69322;DHT22;56468;51.974;4.612;2023-02-12T14:00:10;14.50;52.80
69322;DHT22;56468;51.974;4.612;2023-02-12T14:02:51;14.10;52.90
69322;DHT22;56468;51.974;4.612;2023-02-12T14:05:22;13.70;53.20
69322;DHT22;56468;51.974;4.612;2023-02-12T14:08:00;13.40;53.40
69322;DHT22;67799;51.974;4.612;2023-02-12T14:15:42;12.50;54.20
69322;DHT22;67799;51.974;4.612;2023-02-12T14:18:28;12.30;54.60
69322;DHT22;67799;51.974;4.612;2023-02-12T14:23:39;12.10;54.80
69322;DHT22;67799;51.974;4.612;2023-02-12T14:26:12;11.90;54.90
69322;DHT22;67799;51.974;4.612;2023-02-12T14:28:44;11.80;55.00
69322;DHT22;67799;51.974;4.612;2023-02-12T14:33:47;11.50;55.40
69322;DHT22;67799;51.974;4.612;2023-02-12T14:41:51;11.20;55.40
69322;DHT22;67799;51.974;4.612;2023-02-12T14:46:54;11.10;55.70
69322;DHT22;67799;51.974;4.612;2023-02-12T14:57:35;10.80;55.90
69322;DHT22;67799;51.974;4.612;2023-02-12T15:05:29;10.70;55.90
69322;DHT22;67799;51.974;4.612;2023-02-12T15:08:10;10.60;56.00
69322;DHT22;67799;51.974;4.612;2023-02-12T15:11:53;10.60;56.10
69322;DHT22;67799;51.974;4.612;2023-02-12T15:14:15;10.60;56.30
69322;DHT22;67799;51.974;4.612;2023-02-12T15:16:51;10.60;56.30
69322;DHT22;67799;51.974;4.612;2023-02-12T15:19:39;10.60;56.20
69322;DHT22;67799;51.974;4.612;2023-02-12T15:22:30;10.50;56.20
69322;DHT22;67799;51.974;4.612;2023-02-12T15:28:00;10.40;56.30
69322;DHT22;67799;51.974;4.612;2023-02-12T15:30:30;10.40;56.30
69322;DHT22;67799;51.974;4.612;2023-02-12T15:32:59;10.40;56.40
69322;DHT22;67799;51.974;4.612;2023-02-12T15:35:30;10.30;56.20
69322;DHT22;67799;51.974;4.612;2023-02-12T15:37:57;10.30;56.30
69322;DHT22;67799;51.974;4.612;2023-02-12T15:40:26;10.20;56.40
69322;DHT22;67799;51.974;4.612;2023-02-12T15:43:00;10.20;56.50
69322;DHT22;67799;51.974;4.612;2023-02-12T15:45:34;10.20;56.60
69322;DHT22;67799;51.974;4.612;2023-02-12T15:48:12;10.20;56.70
69322;DHT22;67799;51.974;4.612;2023-02-12T15:53:15;10.30;56.80
69322;DHT22;67799;51.974;4.612;2023-02-12T15:55:46;10.30;56.80
69322;DHT22;67799;51.974;4.612;2023-02-12T15:58:23;10.30;56.80
69322;DHT22;67799;51.974;4.612;2023-02-12T16:00:49;10.30;56.80
69322;DHT22;67799;51.974;4.612;2023-02-12T16:03:25;10.30;56.80
69322;DHT22;67799;51.974;4.612;2023-02-12T16:05:55;10.20;56.90
69322;DHT22;67799;51.974;4.612;2023-02-12T16:08:23;10.20;56.90
69322;DHT22;67799;51.974;4.612;2023-02-12T16:10:52;10.20;57.00
69322;DHT22;67799;51.974;4.612;2023-02-12T16:13:33;10.20;57.10
69322;DHT22;67799;51.974;4.612;2023-02-12T16:16:15;10.20;57.10
69322;DHT22;67799;51.974;4.612;2023-02-12T16:18:42;10.10;57.20
69322;DHT22;67799;51.974;4.612;2023-02-12T16:21:19;10.10;57.20
69322;DHT22;67799;51.974;4.612;2023-02-12T16:23:49;10.10;57.20
69322;DHT22;67799;51.974;4.612;2023-02-12T16:26:17;10.10;57.30
69322;DHT22;67799;51.974;4.612;2023-02-12T16:28:47;10.00;57.30
69322;DHT22;67799;51.974;4.612;2023-02-12T16:31:14;10.00;57.30
69322;DHT22;67799;51.974;4.612;2023-02-12T16:33:47;10.00;57.30
69322;DHT22;67799;51.974;4.612;2023-02-12T16:39:00;9.90;57.50
69322;DHT22;67799;51.974;4.612;2023-02-12T16:41:31;9.90;57.50
69322;DHT22;67799;51.974;4.612;2023-02-12T16:46:27;9.70;57.50
69322;DHT22;67799;51.974;4.612;2023-02-12T16:48:55;9.70;57.50
69322;DHT22;67799;51.974;4.612;2023-02-12T16:51:31;9.60;57.60
69322;DHT22;67799;51.974;4.612;2023-02-12T16:54:25;9.60;57.70
69322;DHT22;67799;51.974;4.612;2023-02-12T16:56:52;9.60;57.70
69322;DHT22;67799;51.974;4.612;2023-02-12T16:59:17;9.50;57.70
69322;DHT22;67799;51.974;4.612;2023-02-12T17:02:13;9.50;57.80
69322;DHT22;67799;51.974;4.612;2023-02-12T17:04:40;9.50;57.80
69322;DHT22;67799;51.974;4.612;2023-02-12T17:07:21;9.40;57.90
69322;DHT22;67799;51.974;4.612;2023-02-12T17:09:48;9.40;57.90
69322;DHT22;67799;51.974;4.612;2023-02-12T17:12:15;9.40;57.90
69322;DHT22;67799;51.974;4.612;2023-02-12T17:14:41;9.40;57.90
69322;DHT22;67799;51.974;4.612;2023-02-12T17:17:07;9.40;57.90
69322;DHT22;67799;51.974;4.612;2023-02-12T17:19:33;9.30;58.00
69322;DHT22;67799;51.974;4.612;2023-02-12T17:21:59;9.30;58.00
69322;DHT22;67799;51.974;4.612;2023-02-12T17:24:27;9.30;58.00
69322;DHT22;67799;51.974;4.612;2023-02-12T17:26:54;9.30;58.00
69322;DHT22;67799;51.974;4.612;2023-02-12T17:29:23;9.30;58.00
69322;DHT22;67799;51.974;4.612;2023-02-12T17:31:49;9.30;58.10
69322;DHT22;67799;51.974;4.612;2023-02-12T17:34:18;9.30;58.10
69322;DHT22;67799;51.974;4.612;2023-02-12T17:36:44;9.30;58.10
69322;DHT22;67799;51.974;4.612;2023-02-12T17:39:12;9.30;58.10
69322;DHT22;67799;51.974;4.612;2023-02-12T17:41:38;9.30;58.10
69322;DHT22;67799;51.974;4.612;2023-02-12T17:44:06;9.30;58.20
69322;DHT22;67799;51.974;4.612;2023-02-12T17:46:32;9.30;58.10
69322;DHT22;67799;51.974;4.612;2023-02-12T17:48:58;9.30;58.20
69322;DHT22;67799;51.974;4.612;2023-02-12T17:51:24;9.30;58.20
69322;DHT22;67799;51.974;4.612;2023-02-12T17:53:50;9.20;58.10
69322;DHT22;67799;51.974;4.612;2023-02-12T17:56:19;9.20;58.20
69322;DHT22;67799;51.974;4.612;2023-02-12T17:58:46;9.20;58.20
69322;DHT22;67799;51.974;4.612;2023-02-12T18:01:17;9.20;58.30
69322;DHT22;67799;51.974;4.612;2023-02-12T18:03:43;9.20;58.30
69322;DHT22;67799;51.974;4.612;2023-02-12T18:06:09;9.20;58.30
69322;DHT22;67799;51.974;4.612;2023-02-12T18:08:39;9.20;58.30
69322;DHT22;67799;51.974;4.612;2023-02-12T18:11:06;9.20;58.30
69322;DHT22;67799;51.974;4.612;2023-02-12T18:13:33;9.20;58.30
69322;DHT22;67799;51.974;4.612;2023-02-12T18:15:59;9.20;58.30
69322;DHT22;67799;51.974;4.612;2023-02-12T18:18:25;9.20;58.40
69322;DHT22;67799;51.974;4.612;2023-02-12T18:20:50;9.20;58.40
69322;DHT22;67799;51.974;4.612;2023-02-12T18:23:16;9.20;58.50
69322;DHT22;67799;51.974;4.612;2023-02-12T18:25:43;9.30;58.50
69322;DHT22;67799;51.974;4.612;2023-02-12T18:28:09;9.20;58.50
69322;DHT22;67799;51.974;4.612;2023-02-12T18:30:36;9.30;58.50
69322;DHT22;67799;51.974;4.612;2023-02-12T18:33:06;9.20;58.40
69322;DHT22;67799;51.974;4.612;2023-02-12T18:35:32;9.30;58.40
69322;DHT22;67799;51.974;4.612;2023-02-12T18:37:58;9.30;58.50
69322;DHT22;67799;51.974;4.612;2023-02-12T18:40:24;9.20;58.50
69322;DHT22;67799;51.974;4.612;2023-02-12T18:42:50;9.30;58.50
69322;DHT22;67799;51.974;4.612;2023-02-12T18:45:16;9.20;58.50
69322;DHT22;67799;51.974;4.612;2023-02-12T18:47:44;9.30;58.50
69322;DHT22;67799;51.974;4.612;2023-02-12T18:50:10;9.30;58.50
69322;DHT22;67799;51.974;4.612;2023-02-12T18:52:36;9.20;58.60
69322;DHT22;67799;51.974;4.612;2023-02-12T18:55:04;9.20;58.60
69322;DHT22;67799;51.974;4.612;2023-02-12T18:57:30;9.20;58.60
69322;DHT22;67799;51.974;4.612;2023-02-12T18:59:56;9.20;58.60
69322;DHT22;67799;51.974;4.612;2023-02-12T19:02:22;9.20;58.60
69322;DHT22;67799;51.974;4.612;2023-02-12T19:04:48;9.20;58.50
69322;DHT22;67799;51.974;4.612;2023-02-12T19:07:14;9.20;58.60
69322;DHT22;67799;51.974;4.612;2023-02-12T19:09:39;9.10;58.70
69322;DHT22;67799;51.974;4.612;2023-02-12T19:12:05;9.10;58.70
69322;DHT22;67799;51.974;4.612;2023-02-12T19:14:32;9.10;58.70
69322;DHT22;67799;51.974;4.612;2023-02-12T19:16:58;9.20;58.70
69322;DHT22;67799;51.974;4.612;2023-02-12T19:19:24;9.10;58.70
69322;DHT22;67799;51.974;4.612;2023-02-12T19:21:50;9.10;58.70
69322;DHT22;67799;51.974;4.612;2023-02-12T19:24:16;9.10;58.60
69322;DHT22;67799;51.974;4.612;2023-02-12T19:26:42;9.10;58.60
69322;DHT22;67799;51.974;4.612;2023-02-12T19:29:12;9.00;58.70
69322;DHT22;67799;51.974;4.612;2023-02-12T19:31:40;9.00;58.70
69322;DHT22;67799;51.974;4.612;2023-02-12T19:34:12;9.00;58.70
69322;DHT22;67799;51.974;4.612;2023-02-12T19:36:42;9.00;58.80
69322;DHT22;67799;51.974;4.612;2023-02-12T19:39:09;9.00;58.80
69322;DHT22;67799;51.974;4.612;2023-02-12T19:41:37;9.00;58.80
69322;DHT22;67799;51.974;4.612;2023-02-12T19:44:09;9.00;58.90
69322;DHT22;67799;51.974;4.612;2023-02-12T19:46:35;9.00;58.90
69322;DHT22;67799;51.974;4.612;2023-02-12T19:49:03;9.00;58.90
69322;DHT22;67799;51.974;4.612;2023-02-12T19:51:30;9.00;59.00
69322;DHT22;67799;51.974;4.612;2023-02-12T19:54:03;9.00;59.00
69322;DHT22;67799;51.974;4.612;2023-02-12T19:56:33;9.00;59.00
69322;DHT22;67799;51.974;4.612;2023-02-12T19:58:59;9.00;58.90
69322;DHT22;67799;51.974;4.612;2023-02-12T20:01:25;9.00;58.90
69322;DHT22;67799;51.974;4.612;2023-02-12T20:03:52;9.00;58.80
69322;DHT22;67799;51.974;4.612;2023-02-12T20:06:21;9.00;58.80
69322;DHT22;67799;51.974;4.612;2023-02-12T20:08:48;9.00;58.90
69322;DHT22;67799;51.974;4.612;2023-02-12T20:11:17;9.00;59.00
69322;DHT22;67799;51.974;4.612;2023-02-12T20:13:44;9.00;59.10
69322;DHT22;67799;51.974;4.612;2023-02-12T20:16:14;9.00;59.10
69322;DHT22;67799;51.974;4.612;2023-02-12T20:18:48;9.00;59.10
69322;DHT22;67799;51.974;4.612;2023-02-12T20:21:17;9.10;59.40
69322;DHT22;67799;51.974;4.612;2023-02-12T20:23:44;9.40;65.00
69322;DHT22;67799;51.974;4.612;2023-02-12T20:26:12;9.40;64.60
69322;DHT22;67799;51.974;4.612;2023-02-12T20:28:39;9.30;65.00
69322;DHT22;67799;51.974;4.612;2023-02-12T20:31:14;9.50;64.40
69322;DHT22;67799;51.974;4.612;2023-02-12T20:33:40;9.60;63.60
69322;DHT22;67799;51.974;4.612;2023-02-12T20:36:07;9.50;64.50
69322;DHT22;67799;51.974;4.612;2023-02-12T20:38:33;9.70;64.70
69322;DHT22;67799;51.974;4.612;2023-02-12T20:41:03;9.80;63.70
69322;DHT22;67799;51.974;4.612;2023-02-12T20:43:30;9.80;63.00
69322;DHT22;67799;51.974;4.612;2023-02-12T20:46:13;9.80;62.60
69322;DHT22;67799;51.974;4.612;2023-02-12T20:48:39;9.70;62.40
69322;DHT22;67799;51.974;4.612;2023-02-12T20:51:08;9.60;62.20
69322;DHT22;67799;51.974;4.612;2023-02-12T20:53:34;9.50;62.20
69322;DHT22;67799;51.974;4.612;2023-02-12T20:56:05;9.30;62.20
69322;DHT22;67799;51.974;4.612;2023-02-12T20:58:32;9.20;62.40
69322;DHT22;67799;51.974;4.612;2023-02-12T21:01:08;9.10;62.40
69322;DHT22;67799;51.974;4.612;2023-02-12T21:03:35;9.10;62.50
69322;DHT22;67799;51.974;4.612;2023-02-12T21:06:02;9.00;62.60
69322;DHT22;67799;51.974;4.612;2023-02-12T21:08:28;9.00;62.60
69322;DHT22;67799;51.974;4.612;2023-02-12T21:11:05;9.00;62.60
69322;DHT22;67799;51.974;4.612;2023-02-12T21:13:32;8.90;62.60
69322;DHT22;67799;51.974;4.612;2023-02-12T21:16:10;8.90;62.70
69322;DHT22;67799;51.974;4.612;2023-02-12T21:18:36;8.90;62.70
69322;DHT22;67799;51.974;4.612;2023-02-12T21:21:05;8.90;62.70
69322;DHT22;67799;51.974;4.612;2023-02-12T21:23:32;8.90;62.70
69322;DHT22;67799;51.974;4.612;2023-02-12T21:26:06;8.80;62.70
69322;DHT22;67799;51.974;4.612;2023-02-12T21:28:33;8.80;62.70
69322;DHT22;67799;51.974;4.612;2023-02-12T21:31:12;8.80;62.80
69322;DHT22;67799;51.974;4.612;2023-02-12T21:33:40;8.80;62.90
69322;DHT22;67799;51.974;4.612;2023-02-12T21:36:09;8.80;62.90
69322;DHT22;67799;51.974;4.612;2023-02-12T21:38:37;8.80;62.90
69322;DHT22;67799;51.974;4.612;2023-02-12T21:41:11;8.80;62.90
69322;DHT22;67799;51.974;4.612;2023-02-12T21:43:39;8.80;62.80
69322;DHT22;67799;51.974;4.612;2023-02-12T21:46:06;8.80;62.80
69322;DHT22;67799;51.974;4.612;2023-02-12T21:48:33;8.80;62.80
69322;DHT22;67799;51.974;4.612;2023-02-12T21:50:59;8.80;62.70
69322;DHT22;67799;51.974;4.612;2023-02-12T21:53:25;8.80;62.60
69322;DHT22;67799;51.974;4.612;2023-02-12T21:55:52;8.70;62.50
69322;DHT22;67799;51.974;4.612;2023-02-12T21:58:19;8.70;62.50
69322;DHT22;67799;51.974;4.612;2023-02-12T22:00:45;8.70;62.50
69322;DHT22;67799;51.974;4.612;2023-02-12T22:03:12;8.70;62.60
69322;DHT22;67799;51.974;4.612;2023-02-12T22:05:38;8.70;62.60
69322;DHT22;67799;51.974;4.612;2023-02-12T22:08:04;8.60;62.60
69322;DHT22;67799;51.974;4.612;2023-02-12T22:10:30;8.60;62.50
69322;DHT22;67799;51.974;4.612;2023-02-12T22:12:56;8.60;62.50
69322;DHT22;67799;51.974;4.612;2023-02-12T22:15:22;8.60;62.50
69322;DHT22;67799;51.974;4.612;2023-02-12T22:17:48;8.50;62.50
69322;DHT22;67799;51.974;4.612;2023-02-12T22:20:14;8.50;62.60
69322;DHT22;67799;51.974;4.612;2023-02-12T22:22:40;8.50;62.60
69322;DHT22;67799;51.974;4.612;2023-02-12T22:25:06;8.50;62.50
69322;DHT22;67799;51.974;4.612;2023-02-12T22:27:33;8.50;62.60
69322;DHT22;67799;51.974;4.612;2023-02-12T22:29:59;8.50;62.60
69322;DHT22;67799;51.974;4.612;2023-02-12T22:32:25;8.40;62.60
69322;DHT22;67799;51.974;4.612;2023-02-12T22:34:52;8.40;62.60
69322;DHT22;67799;51.974;4.612;2023-02-12T22:37:18;8.40;62.60
69322;DHT22;67799;51.974;4.612;2023-02-12T22:39:44;8.40;62.60
69322;DHT22;67799;51.974;4.612;2023-02-12T22:42:10;8.40;62.60
69322;DHT22;67799;51.974;4.612;2023-02-12T22:44:36;8.40;62.60
69322;DHT22;67799;51.974;4.612;2023-02-12T22:47:02;8.40;62.60
69322;DHT22;67799;51.974;4.612;2023-02-12T22:49:28;8.40;62.50
69322;DHT22;67799;51.974;4.612;2023-02-12T22:51:54;8.40;62.60
69322;DHT22;67799;51.974;4.612;2023-02-12T22:54:20;8.40;62.60
69322;DHT22;67799;51.974;4.612;2023-02-12T22:56:49;8.40;62.60
69322;DHT22;67799;51.974;4.612;2023-02-12T22:59:15;8.40;62.60
69322;DHT22;67799;51.974;4.612;2023-02-12T23:01:41;8.40;62.60
69322;DHT22;67799;51.974;4.612;2023-02-12T23:04:13;8.40;62.60
69322;DHT22;67799;51.974;4.612;2023-02-12T23:06:40;8.40;62.60
69322;DHT22;67799;51.974;4.612;2023-02-12T23:09:06;8.40;62.50
69322;DHT22;67799;51.974;4.612;2023-02-12T23:11:32;8.40;62.50
69322;DHT22;67799;51.974;4.612;2023-02-12T23:13:58;8.40;62.60
69322;DHT22;67799;51.974;4.612;2023-02-12T23:16:24;8.40;62.50
69322;DHT22;67799;51.974;4.612;2023-02-12T23:18:55;8.40;62.60
69322;DHT22;67799;51.974;4.612;2023-02-12T23:21:21;8.40;62.60
69322;DHT22;67799;51.974;4.612;2023-02-12T23:23:47;8.40;62.60
69322;DHT22;67799;51.974;4.612;2023-02-12T23:26:13;8.40;62.60
69322;DHT22;67799;51.974;4.612;2023-02-12T23:28:39;8.40;62.60
69322;DHT22;67799;51.974;4.612;2023-02-12T23:31:04;8.30;62.70
69322;DHT22;67799;51.974;4.612;2023-02-12T23:33:30;8.30;62.80
69322;DHT22;67799;51.974;4.612;2023-02-12T23:35:56;8.30;62.90
69322;DHT22;67799;51.974;4.612;2023-02-12T23:38:22;8.30;62.90
69322;DHT22;67799;51.974;4.612;2023-02-12T23:40:48;8.30;63.00
69322;DHT22;67799;51.974;4.612;2023-02-12T23:43:14;8.30;63.00
69322;DHT22;67799;51.974;4.612;2023-02-12T23:45:42;8.30;63.00
69322;DHT22;67799;51.974;4.612;2023-02-12T23:48:08;8.30;62.90
69322;DHT22;67799;51.974;4.612;2023-02-12T23:50:34;8.30;62.90
69322;DHT22;67799;51.974;4.612;2023-02-12T23:53:00;8.30;62.90
69322;DHT22;67799;51.974;4.612;2023-02-12T23:55:26;8.30;62.90
69322;DHT22;67799;51.974;4.612;2023-02-12T23:57:52;8.30;62.80
